TimeCDT,TemperatureF,Dew PointF,Humidity,Sea Level PressureIn,VisibilityMPH,Wind Direction,Wind SpeedMPH,Gust SpeedMPH,PrecipitationIn,Events,Conditions,WindDirDegrees,DateUTC
12:53 AM,66.9,46.9,49,29.75,10.0,SSW,17.3,24.2,N/A,,Clear,210,2013-03-16 05:53:00
1:53 AM,66.0,46.0,48,29.75,10.0,SW,17.3,27.6,N/A,,Clear,230,2013-03-16 06:53:00
2:53 AM,64.0,46.0,52,29.75,10.0,SW,16.1,24.2,N/A,,Clear,220,2013-03-16 07:53:00
3:53 AM,63.0,46.0,54,29.74,10.0,SW,15.0,23.0,N/A,,Clear,220,2013-03-16 08:53:00
4:53 AM,62.1,46.0,56,29.74,10.0,SW,16.1,24.2,N/A,,Clear,230,2013-03-16 09:53:00
5:53 AM,60.1,46.0,60,29.74,10.0,SW,13.8,-,N/A,,Clear,230,2013-03-16 10:53:00
6:53 AM,59.0,45.0,60,29.76,10.0,SW,13.8,19.6,N/A,,Clear,220,2013-03-16 11:53:00
7:53 AM,60.1,46.0,60,29.78,10.0,SW,13.8,21.9,N/A,,Clear,230,2013-03-16 12:53:00
8:53 AM,61.0,46.9,60,29.79,10.0,WSW,16.1,23.0,N/A,,Clear,240,2013-03-16 13:53:00
9:53 AM,64.0,48.9,58,29.80,10.0,WSW,20.7,26.5,N/A,,Clear,240,2013-03-16 14:53:00
10:53 AM,66.9,50.0,54,29.82,10.0,WSW,19.6,26.5,N/A,,Clear,250,2013-03-16 15:53:00
11:53 AM,66.9,50.0,54,29.84,10.0,West,15.0,-,N/A,,Clear,260,2013-03-16 16:53:00
12:53 PM,68.0,48.9,50,29.85,10.0,West,11.5,18.4,N/A,,Partly Cloudy,270,2013-03-16 17:53:00
1:53 PM,64.9,46.9,52,29.86,10.0,North,18.4,23.0,N/A,,Partly Cloudy,10,2013-03-16 18:53:00
2:53 PM,62.1,46.0,56,29.86,7.0,North,15.0,-,N/A,,Clear,350,2013-03-16 19:53:00
3:53 PM,57.9,42.1,56,29.90,6.0,North,13.8,-,N/A,,Haze,360,2013-03-16 20:53:00
4:53 PM,55.0,41.0,59,29.90,6.0,North,12.7,-,N/A,,Haze,10,2013-03-16 21:53:00
5:53 PM,52.0,39.9,63,29.92,5.0,North,13.8,-,N/A,,Haze,360,2013-03-16 22:53:00
6:53 PM,51.1,39.9,66,29.93,6.0,NNE,11.5,-,N/A,,Haze,20,2013-03-16 23:53:00
7:53 PM,50.0,39.0,66,29.95,8.0,NE,12.7,-,N/A,,Overcast,40,2013-03-17 00:53:00
8:53 PM,46.9,37.9,71,29.97,8.0,NNE,15.0,-,N/A,,Mostly Cloudy,20,2013-03-17 01:53:00
9:53 PM,46.9,37.9,71,29.98,8.0,NE,12.7,-,N/A,,Overcast,50,2013-03-17 02:53:00
10:53 PM,45.0,37.9,76,29.96,7.0,ENE,11.5,-,N/A,,Overcast,60,2013-03-17 03:53:00
11:53 PM,44.1,37.0,76,29.97,8.0,ENE,12.7,-,N/A,,Overcast,60,2013-03-17 04:53:00